Time;durP1;ratioP1;P1;durP2;ratioP2;P2;SDS_P1;SDS_P2;PMS_P1;PMS_P2;Temp;Humidity;BMP_temperature;BMP_pressure;BME280_temperature;BME280_humidity;BME280_pressure;Samples;Min_cycle;Max_cycle;Signal;HPM_P1;HPM_P2
2021/04/02 00:01:23;;;;;;;9.80;8.60;;;9.80;99.90;;;10.82;67.64;98069.16;5257712;28;20235;-85
2021/04/02 00:03:56;;;;;;;9.40;8.50;;;9.70;99.90;;;10.86;67.78;98075.31;5259949;28;20728;-84
2021/04/02 00:06:28;;;;;;;11.13;9.03;;;9.80;99.90;;;10.81;67.35;98071.59;5272473;28;20274;-84
2021/04/02 00:09:02;;;;;;;9.70;8.80;;;9.70;99.90;;;10.82;67.73;98074.25;5270564;28;20306;-84
2021/04/02 00:11:34;;;;;;;12.03;9.43;;;9.60;99.90;;;10.70;66.87;98076.09;5258895;28;20218;-84
2021/04/02 00:14:07;;;;;;;9.90;8.90;;;9.60;99.90;;;10.55;67.67;98075.16;5265066;28;20286;-85
2021/04/02 00:16:39;;;;;;;11.20;9.03;;;9.50;99.90;;;10.65;67.39;98069.81;5273093;28;20215;-84
2021/04/02 00:19:11;;;;;;;10.60;9.50;;;9.60;99.90;;;10.47;67.95;98078.91;5261096;28;20207;-84
2021/04/02 00:21:43;;;;;;;10.73;8.80;;;9.50;99.90;;;10.35;67.40;98079.94;5253189;28;20284;-85
2021/04/02 00:24:16;;;;;;;11.33;9.53;;;9.40;99.90;;;10.18;69.07;98075.41;5263731;28;20204;-84
2021/04/02 00:26:48;;;;;;;11.27;9.60;;;9.20;99.90;;;10.11;69.09;98073.28;5260111;28;20223;-84
2021/04/02 00:29:20;;;;;;;10.77;8.77;;;9.20;99.90;;;10.03;69.04;98069.38;5272550;28;20638;-83
2021/04/02 00:31:52;;;;;;;10.80;9.70;;;9.10;99.90;;;10.07;69.20;98072.22;5271964;28;20637;-84
2021/04/02 00:34:24;;;;;;;9.97;9.07;;;9.10;99.90;;;10.10;69.91;98076.63;5271602;28;20257;-84
2021/04/02 00:36:56;;;;;;;10.83;9.53;;;9.20;99.90;;;9.93;69.66;98068.81;5257685;28;20289;-85
2021/04/02 00:39:29;;;;;;;12.23;10.13;;;9.10;99.90;;;10.00;69.90;98067.50;5263689;28;20581;-84
2021/04/02 00:42:02;;;;;;;10.60;9.23;;;9.10;99.90;;;9.96;69.78;98069.75;5274000;28;20673;-85
2021/04/02 00:44:34;;;;;;;12.03;10.23;;;9.10;99.90;;;10.03;69.88;98066.81;5268591;28;20604;-84
2021/04/02 00:47:06;;;;;;;10.93;9.80;;;9.10;99.90;;;10.03;69.56;98070.25;5255870;28;20219;-82
2021/04/02 00:49:38;;;;;;;11.00;9.57;;;9.10;99.90;;;10.03;69.99;98067.69;5259823;28;20279;-83
2021/04/02 00:52:10;;;;;;;14.63;10.03;;;9.10;99.90;;;10.05;70.27;98066.13;5261847;28;20231;-82
2021/04/02 00:54:43;;;;;;;11.67;9.73;;;9.10;99.90;;;9.96;70.40;98063.00;5258445;28;20643;-82
2021/04/02 00:57:15;;;;;;;13.87;10.50;;;9.00;99.90;;;9.89;70.72;98056.63;5263081;28;20319;-82
2021/04/02 00:59:47;;;;;;;15.43;11.37;;;9.00;99.90;;;9.94;70.78;98067.13;5251933;28;20295;-82
2021/04/02 01:02:20;;;;;;;12.20;10.90;;;9.10;99.90;;;10.00;70.84;98064.06;5271221;28;20224;-81
2021/04/02 01:04:52;;;;;;;11.87;10.67;;;9.10;99.90;;;10.02;70.97;98062.50;5265329;28;20188;-82
2021/04/02 01:07:24;;;;;;;10.80;9.47;;;9.00;99.90;;;10.00;70.59;98064.06;5251083;28;20305;-83
2021/04/02 01:09:57;;;;;;;13.53;9.63;;;9.00;99.90;;;9.96;69.66;98067.22;5261949;28;20220;-83
2021/04/02 01:12:33;;;;;;;13.03;9.83;;;8.80;99.90;;;9.95;70.18;98066.34;5270659;28;20237;-84
2021/04/02 01:15:12;;;;;;;11.70;10.47;;;8.80;99.90;;;9.88;69.72;98065.06;5263236;28;20195;-83
2021/04/02 01:17:51;;;;;;;12.90;10.17;;;8.80;99.90;;;9.71;70.53;98065.69;5270345;28;20231;-83
2021/04/02 01:20:32;;;;;;;11.97;9.90;;;8.70;99.90;;;9.59;70.02;98064.91;5255594;28;20274;-83
2021/04/02 01:23:10;;;;;;;11.93;10.07;;;8.60;99.90;;;9.59;69.96;98064.91;5268790;28;20746;-82
2021/04/02 01:25:49;;;;;;;11.60;10.40;;;8.60;99.90;;;9.57;70.60;98076.69;5263397;28;20629;-83
2021/04/02 01:28:51;;;;;;;12.70;10.17;;;8.60;99.90;;;9.61;70.88;98065.88;5262012;28;20218;-81
2021/04/02 01:31:24;;;;;;;12.80;10.53;;;8.60;99.90;;;9.53;70.43;98067.03;5249688;28;20227;-81
2021/04/02 01:33:59;;;;;;;13.77;10.70;;;8.50;99.90;;;9.41;71.12;98068.03;5252795;28;20196;-84
2021/04/02 01:36:32;;;;;;;13.97;11.10;;;8.40;99.90;;;9.50;70.03;98066.84;5249886;28;20212;-83
2021/04/02 01:39:07;;;;;;;11.97;10.77;;;8.50;99.90;;;9.42;70.45;98062.16;5261679;28;20216;-82
2021/04/02 01:41:45;;;;;;;13.13;11.77;;;8.40;99.90;;;9.36;71.17;98066.84;5270206;28;20298;-83
2021/04/02 01:44:19;;;;;;;13.97;11.30;;;8.40;99.90;;;9.34;71.76;98059.88;5261467;28;20197;-83
2021/04/02 01:46:52;;;;;;;13.83;11.57;;;8.40;99.90;;;9.34;71.57;98065.88;5249315;28;20197;-82
2021/04/02 01:49:24;;;;;;;14.17;11.70;;;8.40;99.90;;;9.28;71.99;98062.03;5257744;28;20250;-84
2021/04/02 01:51:56;;;;;;;15.83;12.47;;;8.30;99.90;;;9.28;71.36;98065.47;5267621;28;20242;-82
2021/04/02 01:54:30;;;;;;;15.90;13.17;;;8.30;99.90;;;9.42;70.74;98067.25;5256117;28;20691;-83
2021/04/02 01:57:03;;;;;;;16.00;13.23;;;8.30;99.90;;;9.52;71.14;98072.94;5266212;28;20219;-82
2021/04/02 01:59:37;;;;;;;17.17;12.80;;;8.20;99.90;;;9.27;71.27;98068.81;5256900;28;20291;-82
2021/04/02 02:02:10;;;;;;;16.87;13.53;;;8.20;99.90;;;9.18;72.27;98060.53;5249923;28;20216;-83
2021/04/02 02:04:44;;;;;;;14.43;12.57;;;8.10;99.90;;;9.15;72.14;98066.31;5262490;28;20195;-83
2021/04/02 02:07:17;;;;;;;16.53;12.80;;;8.10;99.90;;;9.13;72.21;98060.25;5265673;28;20294;-84
2021/04/02 02:09:52;;;;;;;16.67;12.63;;;8.20;99.90;;;9.09;72.12;98065.91;5256892;28;20723;-83
2021/04/02 02:12:25;;;;;;;16.83;12.47;;;8.10;99.90;;;8.99;72.19;98064.44;5270240;28;20264;-84
2021/04/02 02:14:59;;;;;;;14.83;12.77;;;8.00;99.90;;;8.76;72.28;98060.34;5259574;28;20219;-83
2021/04/02 02:17:32;;;;;;;13.80;12.33;;;7.90;99.90;;;8.77;72.64;98061.25;5269673;28;20250;-84
2021/04/02 02:20:09;;;;;;;14.93;12.43;;;7.80;99.90;;;8.82;72.85;98059.00;5264486;28;20283;-84
2021/04/02 02:22:42;;;;;;;15.00;13.23;;;7.90;99.90;;;8.85;73.25;98061.75;5269531;28;20230;-83
2021/04/02 02:25:15;;;;;;;15.63;12.80;;;7.90;99.90;;;8.88;73.15;98067.94;5268008;28;20663;-84
2021/04/02 02:27:47;;;;;;;17.97;13.63;;;7.90;99.90;;;8.76;73.49;98072.22;5256504;28;20222;-83
2021/04/02 02:30:25;;;;;;;17.07;13.93;;;7.80;99.90;;;8.73;73.70;98065.25;5261415;28;20295;-84
2021/04/02 02:32:57;;;;;;;17.60;13.63;;;7.80;99.90;;;8.71;73.75;98065.94;5251557;28;20227;-82
2021/04/02 02:35:30;;;;;;;16.63;13.47;;;7.80;99.90;;;8.69;73.48;98067.47;5263990;28;20199;-83
2021/04/02 02:38:02;;;;;;;14.70;13.23;;;7.80;99.90;;;8.71;73.99;98071.03;5269387;28;20219;-83
2021/04/02 02:40:37;;;;;;;18.50;13.00;;;7.80;99.90;;;8.79;73.71;98073.31;5263220;28;20705;-83
2021/04/02 02:43:10;;;;;;;15.13;13.53;;;7.80;99.90;;;8.65;73.92;98071.50;5256871;28;20730;-83
2021/04/02 02:45:43;;;;;;;17.77;14.90;;;7.80;99.90;;;8.64;73.92;98072.28;5275613;28;20203;-84
2021/04/02 02:48:16;;;;;;;18.37;15.23;;;7.70;99.90;;;8.54;74.47;98073.31;5279112;28;20227;-82
2021/04/02 02:50:54;;;;;;;18.97;15.27;;;7.60;99.90;;;8.63;73.79;98073.03;5275093;28;20187;-84
2021/04/02 02:53:29;;;;;;;18.20;15.37;;;7.60;99.90;;;8.56;73.83;98071.75;5267064;28;20239;-83
2021/04/02 02:56:02;;;;;;;18.30;14.57;;;7.70;99.90;;;8.52;74.23;98079.06;5260186;28;20196;-83
2021/04/02 02:58:38;;;;;;;22.77;16.80;;;7.60;99.90;;;8.53;74.43;98081.72;5276363;28;20338;-83
2021/04/02 03:01:15;;;;;;;19.83;15.97;;;7.60;99.90;;;8.56;74.92;98081.94;5265157;28;20200;-83
2021/04/02 03:03:47;;;;;;;19.37;15.87;;;7.70;99.90;;;8.61;74.55;98086.44;5265926;28;20230;-83
2021/04/02 03:06:23;;;;;;;20.57;16.07;;;7.60;99.90;;;8.59;74.69;98086.38;5269857;28;20613;-85
2021/04/02 03:08:56;;;;;;;19.07;16.23;;;7.60;99.90;;;8.56;74.18;98084.50;5254978;28;20239;-83
2021/04/02 03:11:28;;;;;;;22.53;16.87;;;7.60;99.90;;;8.53;74.44;98076.63;5274814;28;20570;-83
2021/04/02 03:14:02;;;;;;;19.10;16.00;;;7.50;99.90;;;8.49;74.19;98083.94;5269841;28;20220;-83
2021/04/02 03:16:43;;;;;;;27.17;18.83;;;7.50;99.90;;;8.49;73.56;98083.94;5274163;28;20318;-82
2021/04/02 03:19:23;;;;;;;24.37;19.57;;;7.40;99.90;;;8.43;73.45;98081.00;5271093;28;20230;-83
2021/04/02 03:21:58;;;;;;;26.67;19.77;;;7.30;99.90;;;8.31;73.40;98088.63;5262008;28;20718;-82
2021/04/02 03:24:31;;;;;;;27.50;19.97;;;7.20;99.90;;;8.23;73.52;98089.75;5263382;28;20220;-83
2021/04/02 03:27:06;;;;;;;28.13;19.93;;;7.10;99.90;;;7.97;73.98;98090.47;5255418;28;20307;-84
2021/04/02 03:29:38;;;;;;;24.00;18.80;;;7.00;99.90;;;7.80;74.52;98092.72;5260691;28;20191;-83
2021/04/02 03:32:12;;;;;;;25.23;20.40;;;6.90;99.90;;;7.82;75.23;98088.63;5271194;28;20199;-83
2021/04/02 03:34:46;;;;;;;29.27;20.90;;;6.90;99.90;;;7.90;75.17;98094.28;5265086;28;20225;-83
2021/04/02 03:37:19;;;;;;;25.83;19.70;;;7.00;99.90;;;7.89;75.37;98095.03;5272333;28;20226;-83
2021/04/02 03:39:52;;;;;;;26.80;19.87;;;7.00;99.90;;;7.88;75.56;98096.69;5261110;28;20233;-83
2021/04/02 03:42:26;;;;;;;25.87;19.23;;;7.00;99.90;;;7.87;76.01;98094.06;5268856;28;20224;-83
2021/04/02 03:45:01;;;;;;;28.30;19.93;;;7.00;99.90;;;7.94;75.82;98096.25;5272854;28;20651;-83
2021/04/02 03:47:34;;;;;;;28.07;20.77;;;7.10;99.90;;;8.00;76.01;98098.34;5272060;28;20278;-82
2021/04/02 03:50:11;;;;;;;27.33;21.23;;;7.10;99.90;;;8.13;74.72;98099.31;5254900;28;20201;-83
2021/04/02 03:52:46;;;;;;;28.73;21.50;;;7.00;99.90;;;7.91;74.60;98093.47;5272408;28;20299;-83
2021/04/02 03:55:18;;;;;;;28.37;20.90;;;6.90;99.90;;;7.85;74.84;98093.03;5270874;28;20200;-83
2021/04/02 03:57:52;;;;;;;22.63;19.10;;;6.90;99.90;;;7.81;74.84;98091.03;5272536;28;20255;-82
2021/04/02 04:00:29;;;;;;;24.43;17.60;;;6.90;99.90;;;7.81;74.85;98091.03;5264175;28;20675;-82
2021/04/02 04:03:05;;;;;;;24.10;18.17;;;6.90;99.90;;;7.84;75.36;98101.44;5252793;28;20223;-81
2021/04/02 04:05:38;;;;;;;27.13;19.27;;;7.00;99.90;;;7.84;75.38;98103.97;5258674;28;20283;-80
2021/04/02 04:08:14;;;;;;;26.43;19.97;;;6.90;99.90;;;7.86;74.75;98104.97;5250982;28;20308;-82
2021/04/02 04:10:49;;;;;;;27.87;18.97;;;6.80;99.90;;;7.83;75.27;98105.66;5259033;28;20290;-81
2021/04/02 04:13:24;;;;;;;25.13;18.83;;;6.80;99.90;;;7.79;74.99;98103.69;5271748;28;20217;-80
2021/04/02 04:15:56;;;;;;;25.43;19.20;;;6.80;99.90;;;7.78;74.81;98113.72;5257178;28;20267;-81
2021/04/02 04:18:32;;;;;;;25.13;19.20;;;6.80;99.90;;;7.77;74.75;98111.97;5256363;28;20315;-81
2021/04/02 04:21:07;;;;;;;25.63;19.37;;;6.80;99.90;;;7.65;74.03;98124.69;5269663;28;20234;-81
2021/04/02 04:23:41;;;;;;;24.30;18.90;;;6.70;99.90;;;7.54;74.57;98125.56;5271710;28;20227;-82
2021/04/02 04:26:14;;;;;;;25.27;18.27;;;6.50;99.90;;;7.54;74.87;98123.91;5267318;28;20626;-81
2021/04/02 04:28:51;;;;;;;23.33;17.20;;;6.50;99.90;;;7.50;74.88;98121.00;5255439;28;20303;-81
2021/04/02 04:31:26;;;;;;;23.07;17.27;;;6.50;99.90;;;7.48;75.15;98120.91;5254090;28;20291;-83
2021/04/02 04:34:01;;;;;;;22.17;17.23;;;6.50;99.90;;;7.32;75.98;98115.47;5251577;28;20193;-82
2021/04/02 04:36:35;;;;;;;18.50;15.47;;;6.40;99.90;;;7.34;75.86;98114.81;5249451;28;20262;-84
2021/04/02 04:39:07;;;;;;;16.53;13.00;;;6.40;99.90;;;7.35;75.10;98119.13;5254907;28;20617;-81
2021/04/02 04:41:42;;;;;;;13.63;10.93;;;6.50;99.90;;;7.36;74.90;98122.56;5269509;28;20248;-81
2021/04/02 04:44:18;;;;;;;14.57;10.33;;;6.50;99.90;;;7.40;74.99;98119.47;5250117;28;20281;-81
2021/04/02 04:46:50;;;;;;;13.73;12.43;;;6.60;99.90;;;7.48;73.81;98128.56;5265135;28;20274;-82
2021/04/02 04:49:24;;;;;;;18.07;15.10;;;6.70;99.90;;;7.56;73.86;98124.03;5261100;28;20193;-81
2021/04/02 04:51:57;;;;;;;18.03;14.97;;;6.60;99.90;;;7.26;74.71;98122.66;5250449;28;20205;-81
2021/04/02 04:54:32;;;;;;;18.97;14.03;;;6.30;99.90;;;7.14;75.44;98115.00;5250574;28;20300;-81
2021/04/02 04:57:07;;;;;;;20.83;15.57;;;6.30;99.90;;;7.17;75.32;98121.19;5261265;28;20273;-81
2021/04/02 04:59:42;;;;;;;16.60;13.33;;;6.30;99.90;;;7.12;75.72;98126.72;5269229;28;20187;-81
2021/04/02 05:02:17;;;;;;;14.10;11.60;;;6.30;99.90;;;7.08;75.26;98128.16;5254998;28;20263;-81
2021/04/02 05:04:51;;;;;;;12.40;11.03;;;6.30;99.90;;;7.12;75.18;98136.88;5252179;28;20195;-81
2021/04/02 05:07:25;;;;;;;11.83;10.63;;;6.30;99.90;;;7.16;74.27;98136.34;5248195;28;20303;-82
2021/04/02 05:09:59;;;;;;;14.57;10.60;;;6.40;99.90;;;7.28;74.86;98129.63;5255186;28;20654;-81
2021/04/02 05:12:32;;;;;;;11.57;9.80;;;6.50;99.90;;;7.25;73.90;98131.94;5268634;28;20196;-82
2021/04/02 05:15:06;;;;;;;10.30;9.23;;;6.50;99.90;;;7.27;73.66;98125.31;5262629;28;20193;-82
2021/04/02 05:17:39;;;;;;;11.17;9.60;;;6.40;99.90;;;7.26;73.00;98135.38;5263067;28;20233;-81
2021/04/02 05:20:13;;;;;;;10.80;9.77;;;6.50;99.90;;;7.34;73.31;98139.38;5260446;28;20227;-81
2021/04/02 05:22:46;;;;;;;10.77;9.23;;;6.50;99.90;;;7.41;72.85;98139.03;5264157;28;20241;-82
2021/04/02 05:25:18;;;;;;;11.90;9.03;;;6.50;99.90;;;7.46;73.12;98140.25;5262793;28;20196;-82
2021/04/02 05:27:50;;;;;;;10.23;9.30;;;6.50;99.90;;;7.47;72.66;98142.03;5249663;28;20224;-82
2021/04/02 05:30:23;;;;;;;12.37;9.17;;;6.50;99.90;;;7.45;72.22;98136.84;5264628;28;20283;-82
2021/04/02 05:32:55;;;;;;;11.07;9.90;;;6.60;99.90;;;7.54;72.34;98143.38;5258622;28;20282;-82
2021/04/02 05:35:28;;;;;;;14.60;12.97;;;6.60;99.90;;;7.72;72.21;98148.91;5255582;28;20205;-83
2021/04/02 05:38:01;;;;;;;15.63;12.67;;;6.60;99.90;;;7.74;72.44;98155.00;5261334;28;20223;-83
2021/04/02 05:40:33;;;;;;;14.27;11.63;;;6.60;99.90;;;7.67;71.75;98149.47;5249955;28;20711;-83
2021/04/02 05:43:12;;;;;;;14.60;11.67;;;6.50;99.90;;;7.70;72.65;98146.28;5248439;28;20230;-83
2021/04/02 05:45:47;;;;;;;12.97;11.30;;;6.60;99.90;;;7.74;72.71;98155.00;5249824;28;20680;-82
2021/04/02 05:48:20;;;;;;;14.27;11.60;;;6.70;99.90;;;7.77;72.30;98147.59;5250323;28;20216;-82
2021/04/02 05:50:55;;;;;;;12.63;11.27;;;6.70;99.90;;;7.93;72.61;98137.75;5254521;28;20670;-82
2021/04/02 05:53:29;;;;;;;15.63;12.37;;;6.90;99.90;;;8.09;72.31;98143.13;5261877;28;20238;-82
2021/04/02 05:56:16;;;;;;;12.83;11.20;;;7.10;99.90;;;8.39;71.24;98129.97;5282899;27;20579;-58
2021/04/02 05:58:50;;;;;;;12.83;11.03;;;7.30;99.90;;;8.84;70.33;98137.31;5259764;28;20211;-58
2021/04/02 06:01:22;;;;;;;14.60;11.63;;;7.50;99.90;;;9.28;67.90;98134.34;5256089;28;20580;-60
2021/04/02 06:03:55;;;;;;;14.50;12.43;;;7.80;99.90;;;9.84;66.27;98137.16;5260944;28;20724;-58
2021/04/02 06:06:28;;;;;;;15.17;13.33;;;8.10;99.90;;;10.21;65.08;98129.25;5249413;28;20203;-58
2021/04/02 06:09:00;;;;;;;15.07;13.40;;;8.30;99.90;;;10.66;63.42;98126.94;5264367;28;20307;-58
2021/04/02 06:11:34;;;;;;;15.77;13.43;;;8.40;99.90;;;10.97;61.61;98132.22;5249830;28;20199;-58
2021/04/02 06:14:06;;;;;;;13.20;11.60;;;8.50;99.90;;;10.89;61.41;98130.88;5252413;28;20623;-60
2021/04/02 06:16:38;;;;;;;16.03;12.57;;;8.60;99.90;;;10.83;61.65;98122.03;5255395;28;20196;-60
2021/04/02 06:19:11;;;;;;;13.90;12.27;;;8.80;99.90;;;10.93;61.54;98127.69;5245987;28;20223;-60
2021/04/02 06:21:48;;;;;;;13.63;12.23;;;8.90;99.90;;;10.76;61.43;98127.59;5244521;28;20649;-54
2021/04/02 06:24:38;;;;;;;14.00;12.60;;;9.00;99.90;;;10.92;61.53;98128.50;5253880;28;20227;-59
2021/04/02 06:27:13;;;;;;;13.97;12.30;;;9.10;99.90;;;11.29;60.39;98136.69;5256466;28;20255;-59
2021/04/02 06:29:47;;;;;;;15.10;12.40;;;9.30;99.90;;;11.65;58.42;98124.25;5246742;28;20242;-57
2021/04/02 06:32:33;;;;;;;11.70;10.57;;;9.50;99.90;;;12.19;56.15;98120.50;5251697;28;20200;-57
2021/04/02 06:35:08;;;;;;;11.07;9.80;;;10.10;99.90;;;12.30;54.38;98131.31;5252986;28;20593;-58
2021/04/02 06:37:40;;;;;;;11.47;10.27;;;10.40;99.10;;;12.62;54.43;98130.50;5249981;28;20670;-57
2021/04/02 06:40:16;;;;;;;11.53;10.37;;;10.60;99.40;;;12.76;53.42;98137.25;5252520;28;20664;-56
2021/04/02 06:42:50;;;;;;;11.47;10.33;;;10.70;99.00;;;12.74;53.20;98136.28;5260649;28;20203;-55
2021/04/02 06:45:22;;;;;;;10.57;9.57;;;10.70;98.80;;;13.10;52.30;98133.84;5252619;28;20200;-57
2021/04/02 06:48:09;;;;;;;9.77;8.77;;;10.80;98.20;;;13.38;51.20;98138.75;5255292;28;20227;-56
2021/04/02 06:50:41;;;;;;;9.73;8.82;;;10.90;98.00;;;13.66;50.24;98145.25;5248448;28;20739;-59
2021/04/02 06:53:13;;;;;;;9.73;8.45;;;11.20;97.00;;;13.94;48.17;98150.06;5248755;28;20200;-59
2021/04/02 06:55:47;;;;;;;11.10;8.65;;;11.60;96.20;;;14.10;48.17;98137.13;5261767;28;20311;-59
2021/04/02 06:58:23;;;;;;;9.05;8.15;;;11.50;95.70;;;14.57;46.66;98140.22;5248412;28;20216;-60
2021/04/02 07:01:03;;;;;;;9.45;8.57;;;11.90;95.50;;;14.80;46.10;98142.13;5245425;28;20250;-59
2021/04/02 07:03:36;;;;;;;10.18;9.10;;;12.10;95.00;;;14.98;45.66;98144.63;5251274;28;20185;-60
2021/04/02 07:06:09;;;;;;;8.23;7.47;;;12.00;94.90;;;15.39;45.47;98149.81;5252974;28;20385;-59
2021/04/02 07:08:44;;;;;;;9.25;8.43;;;12.30;95.00;;;15.59;44.87;98145.50;5233184;28;20224;-60
2021/04/02 07:11:17;;;;;;;10.23;9.02;;;12.60;94.50;;;15.74;44.28;98141.91;5233798;28;20196;-61
2021/04/02 07:13:52;;;;;;;9.38;8.48;;;12.70;94.10;;;16.26;43.15;98142.25;5235090;28;20668;-58
2021/04/02 07:16:25;;;;;;;10.20;9.35;;;13.10;93.60;;;16.39;42.20;98154.81;5244993;28;20251;-60
2021/04/02 07:18:58;;;;;;;12.75;9.18;;;13.30;92.70;;;15.92;42.76;98152.09;5245022;28;20315;-60
2021/04/02 07:21:31;;;;;;;10.23;9.27;;;13.20;92.50;;;15.81;44.01;98147.31;5233714;28;20288;-60
2021/04/02 07:24:04;;;;;;;9.98;9.07;;;12.80;93.40;;;15.99;43.55;98142.91;5245884;28;20200;-62
2021/04/02 07:26:37;;;;;;;11.05;10.05;;;13.40;92.40;;;15.43;43.98;98154.31;5247328;28;20302;-63
2021/04/02 07:29:10;;;;;;;10.23;9.43;;;13.30;91.90;;;15.11;44.93;98148.66;5230775;28;20228;-62
2021/04/02 07:31:44;;;;;;;11.20;10.05;;;13.30;92.00;;;15.06;46.10;98152.69;5240080;28;20199;-61
2021/04/02 07:34:17;;;;;;;10.25;9.35;;;13.10;92.90;;;15.35;45.74;98156.53;5233731;28;20288;-60
2021/04/02 07:36:50;;;;;;;10.55;9.52;;;13.70;92.40;;;15.60;45.13;98143.00;5243229;28;20196;-60
2021/04/02 07:39:24;;;;;;;11.15;10.15;;;13.90;91.70;;;15.31;44.94;98155.53;5239846;28;20307;-60
2021/04/02 07:41:57;;;;;;;10.75;9.82;;;13.90;91.20;;;15.68;44.96;98156.22;5243981;28;21639;-59
2021/04/02 07:44:37;;;;;;;11.10;10.02;;;14.30;91.00;;;15.71;44.98;98159.84;5243828;28;20288;-59
2021/04/02 07:47:11;;;;;;;11.32;10.23;;;14.20;91.10;;;15.54;44.82;98145.34;5245624;28;20200;-59
2021/04/02 07:49:58;;;;;;;10.98;9.95;;;14.00;91.30;;;15.44;45.41;98161.22;5241780;28;20262;-60
2021/04/02 07:52:33;;;;;;;11.48;10.45;;;14.00;91.40;;;15.14;46.50;98150.44;5239058;28;20279;-59
2021/04/02 07:55:10;;;;;;;10.57;9.68;;;14.10;91.40;;;15.65;45.30;98146.66;5242224;28;20223;-60
2021/04/02 07:57:57;;;;;;;11.70;10.68;;;14.50;90.70;;;15.64;44.40;98149.16;5240877;28;20235;-60
2021/04/02 08:00:36;;;;;;;12.18;10.98;;;14.20;90.50;;;15.68;44.02;98151.97;5244516;28;20201;-59
2021/04/02 08:03:12;;;;;;;11.93;10.82;;;14.10;90.30;;;15.44;43.99;98162.09;5245934;28;20227;-59
2021/04/02 08:06:02;;;;;;;12.13;10.85;;;13.90;90.40;;;15.00;46.01;98167.88;5246001;28;20222;-60
2021/04/02 08:08:45;;;;;;;12.63;11.38;;;13.60;91.20;;;15.03;46.06;98162.88;5241349;28;20252;-60
2021/04/02 08:11:25;;;;;;;12.57;11.35;;;13.70;91.20;;;15.14;45.41;98160.75;5242942;28;20288;-60
2021/04/02 08:14:00;;;;;;;12.48;11.18;;;13.60;91.20;;;14.90;46.24;98164.00;5242466;28;20196;-60
2021/04/02 08:16:50;;;;;;;11.25;10.15;;;13.30;91.30;;;14.69;46.44;98163.03;5245491;28;20231;-58
2021/04/02 08:19:27;;;;;;;12.73;11.55;;;13.10;91.80;;;14.68;46.58;98164.75;5242510;28;20262;-58
2021/04/02 08:22:03;;;;;;;13.35;11.55;;;13.30;91.40;;;14.44;46.68;98169.56;5243758;28;20304;-58
2021/04/02 08:24:37;;;;;;;11.88;10.95;;;13.30;91.20;;;14.28;47.36;98169.66;5242249;28;20188;-59
2021/04/02 08:27:09;;;;;;;12.98;11.65;;;12.80;91.90;;;14.16;46.90;98173.44;5242953;28;20204;-60
2021/04/02 08:29:44;;;;;;;12.95;11.75;;;12.90;91.90;;;14.14;47.38;98169.91;5243689;28;20676;-60
2021/04/02 08:32:17;;;;;;;13.00;11.90;;;12.70;91.90;;;13.71;47.90;98172.94;5244481;28;20192;-60
2021/04/02 08:34:49;;;;;;;12.07;10.98;;;12.40;92.30;;;13.40;48.34;98183.34;5244038;28;20218;-60
2021/04/02 08:37:21;;;;;;;13.93;12.57;;;12.30;92.80;;;12.91;50.16;98185.91;5240988;28;20279;-60
2021/04/02 08:39:54;;;;;;;14.35;12.95;;;11.90;93.10;;;12.70;50.90;98180.50;5245266;28;20749;-58
2021/04/02 08:42:29;;;;;;;14.32;13.02;;;11.80;93.50;;;12.87;51.69;98177.94;5229515;28;20197;-60
2021/04/02 08:45:08;;;;;;;13.85;12.55;;;11.80;93.90;;;13.08;49.90;98179.97;5238402;28;20678;-58
2021/04/02 08:47:41;;;;;;;14.73;13.43;;;11.90;93.80;;;13.10;50.44;98179.16;5243815;28;20279;-59
2021/04/02 08:50:13;;;;;;;13.80;12.40;;;12.10;93.50;;;13.26;51.27;98176.63;5245579;28;20652;-60
2021/04/02 08:52:45;;;;;;;13.75;12.45;;;12.10;94.20;;;13.31;50.42;98189.72;5241183;28;20189;-60
2021/04/02 08:55:17;;;;;;;13.63;12.40;;;12.20;93.40;;;13.09;50.65;98183.41;5244578;28;20222;-60
2021/04/02 08:57:50;;;;;;;15.27;13.77;;;12.10;93.50;;;12.90;50.89;98184.13;5239756;28;20228;-60
2021/04/02 09:00:24;;;;;;;12.52;11.32;;;11.90;93.70;;;13.11;50.85;98178.38;5242700;28;20204;-58
2021/04/02 09:02:58;;;;;;;13.80;12.50;;;12.00;93.90;;;13.16;50.16;98174.34;5233330;28;20289;-58
2021/04/02 09:05:30;;;;;;;13.10;11.85;;;12.00;94.00;;;13.40;50.54;98179.91;5225620;28;20208;-60
2021/04/02 09:08:04;;;;;;;13.40;12.10;;;12.20;94.30;;;13.59;49.66;98184.28;5244699;28;20307;-57
2021/04/02 09:10:37;;;;;;;13.73;12.52;;;12.30;93.40;;;13.55;50.19;98179.81;5235589;28;20259;-58
2021/04/02 09:13:10;;;;;;;14.05;12.55;;;12.30;93.80;;;13.75;50.59;98179.09;5239370;28;20228;-59
2021/04/02 09:15:46;;;;;;;13.40;12.10;;;12.50;94.00;;;13.95;49.15;98173.25;5246481;28;20226;-60
2021/04/02 09:18:27;;;;;;;14.15;12.77;;;12.50;93.10;;;14.03;48.29;98185.63;5243084;28;20220;-58
2021/04/02 09:21:00;;;;;;;14.40;12.98;;;12.70;93.10;;;13.72;50.45;98179.84;5236230;28;20197;-58
2021/04/02 09:23:34;;;;;;;14.77;13.35;;;12.40;94.00;;;13.49;49.42;98176.13;5230982;28;20197;-60
2021/04/02 09:26:09;;;;;;;14.02;12.68;;;12.30;93.60;;;13.40;50.05;98165.38;5225887;28;20730;-60
2021/04/02 09:28:41;;;;;;;13.52;12.23;;;12.00;94.00;;;13.63;49.83;98170.81;5235616;28;20808;-59
2021/04/02 09:31:22;;;;;;;14.77;13.30;;;12.40;93.70;;;13.54;49.76;98170.34;5245745;28;20295;-60
2021/04/02 09:33:57;;;;;;;14.25;12.50;;;12.50;93.40;;;13.85;49.48;98165.94;5225743;28;20205;-60
2021/04/02 09:36:32;;;;;;;12.93;11.77;;;12.80;93.10;;;14.04;49.06;98164.22;5226586;28;20239;-61
2021/04/02 09:39:09;;;;;;;13.85;12.55;;;13.10;92.40;;;13.94;48.89;98160.34;5228975;28;20232;-59
2021/04/02 09:41:48;;;;;;;14.30;12.90;;;12.90;92.30;;;14.02;48.57;98155.56;5225896;28;20279;-62
2021/04/02 09:44:24;;;;;;;12.77;11.68;;;12.90;92.50;;;14.48;47.55;98160.31;5225659;28;20671;-61
2021/04/02 09:47:03;;;;;;;12.13;10.93;;;13.60;91.80;;;14.63;48.56;98158.50;5240766;28;20292;-61
2021/04/02 09:49:37;;;;;;;13.75;12.35;;;13.80;91.80;;;14.84;46.59;98161.16;5239911;28;20259;-61
2021/04/02 09:52:10;;;;;;;12.52;11.43;;;14.10;90.70;;;14.95;46.47;98164.22;5239442;28;20197;-61
2021/04/02 09:54:43;;;;;;;14.43;13.02;;;14.30;90.40;;;15.14;44.62;98166.81;5235577;28;20232;-62
2021/04/02 09:57:15;;;;;;;14.32;13.07;;;14.20;88.60;;;14.71;45.24;98174.25;5228826;28;20232;-60
2021/04/02 09:59:47;;;;;;;13.98;12.60;;;13.70;89.70;;;14.09;46.33;98165.34;5244849;28;20216;-60
2021/04/02 10:02:19;;;;;;;13.75;12.45;;;12.90;90.70;;;14.17;46.64;98164.91;5235350;28;20199;-62
2021/04/02 10:04:52;;;;;;;14.30;13.02;;;12.80;91.40;;;14.41;46.54;98165.16;5239914;28;20721;-62
2021/04/02 10:07:24;;;;;;;14.27;12.80;;;13.10;91.00;;;14.19;48.16;98163.28;5237696;28;20233;-62
2021/04/02 10:09:56;;;;;;;13.70;12.40;;;13.20;91.40;;;14.35;46.78;98153.72;5229580;28;20196;-61
2021/04/02 10:12:28;;;;;;;13.10;11.90;;;13.40;90.80;;;14.10;46.90;98164.53;5238034;28;20720;-61
2021/04/02 10:15:01;;;;;;;13.80;12.40;;;13.20;90.80;;;14.01;47.21;98164.09;5229160;28;20260;-61
2021/04/02 10:17:33;;;;;;;14.07;12.77;;;13.20;91.00;;;14.10;47.43;98156.81;5230073;28;20205;-61
2021/04/02 10:20:09;;;;;;;12.93;11.73;;;13.20;91.10;;;14.05;46.82;98151.47;5240207;28;20677;-61
2021/04/02 10:22:41;;;;;;;13.18;11.88;;;13.30;90.50;;;14.15;47.99;98152.78;5237977;28;20889;-61
2021/04/02 10:25:13;;;;;;;13.15;11.93;;;13.30;91.20;;;14.42;46.80;98145.47;5234635;28;20280;-61
2021/04/02 10:27:45;;;;;;;11.82;10.73;;;13.60;90.60;;;14.52;45.70;98151.97;5231394;28;20221;-61
2021/04/02 10:30:20;;;;;;;12.65;11.45;;;13.80;89.40;;;14.91;45.43;98154.56;5246248;28;20653;-61
2021/04/02 10:32:52;;;;;;;11.80;10.80;;;14.10;88.90;;;14.91;44.93;98146.84;5235154;28;20603;-59
2021/04/02 10:35:27;;;;;;;12.80;11.60;;;14.10;88.20;;;15.06;43.91;98144.97;5228945;28;20253;-61
2021/04/02 10:37:59;;;;;;;13.52;12.20;;;14.10;86.70;;;14.90;42.67;98139.97;5225932;28;20221;-61
2021/04/02 10:40:33;;;;;;;12.18;11.05;;;13.90;85.50;;;14.53;43.49;98138.28;5235011;28;20675;-61
2021/04/02 10:43:06;;;;;;;12.18;11.07;;;13.50;86.90;;;14.67;43.95;98142.38;5243035;28;20200;-61
2021/04/02 10:45:38;;;;;;;12.45;11.40;;;13.70;87.50;;;14.87;44.23;98141.56;5238253;28;20228;-61